Time;durP1;ratioP1;P1;durP2;ratioP2;P2;SDS_P1;SDS_P2;PMS_P1;PMS_P2;Temp;Humidity;BMP_temperature;BMP_pressure;BME280_temperature;BME280_humidity;BME280_pressure;Samples;Min_cycle;Max_cycle;Signal;HPM_P1;HPM_P2
2021/07/14 00:01:19;;;;;;;3.05;1.90;;;;;;;;;;5073459;28;20032;-49
2021/07/14 00:03:45;;;;;;;6.40;1.73;;;;;;;;;;5074364;28;20044;-50
2021/07/14 00:06:11;;;;;;;8.82;2.10;;;;;;;;;;5074807;28;20016;-49
2021/07/14 00:08:37;;;;;;;2.75;1.95;;;;;;;;;;5074550;28;20451;-49
2021/07/14 00:11:03;;;;;;;3.10;1.98;;;;;;;;;;5073525;28;20020;-49
2021/07/14 00:13:35;;;;;;;2.80;1.90;;;;;;;;;;5073346;28;20021;-49
2021/07/14 00:24:16;;;;;;;3.05;1.92;;;;;;;;;;5074323;28;20039;-49
2021/07/14 00:26:42;;;;;;;5.90;1.75;;;;;;;;;;5073586;28;20024;-50
2021/07/14 00:29:12;;;;;;;7.95;2.40;;;;;;;;;;5073981;28;20106;-49
2021/07/14 00:31:38;;;;;;;3.10;2.15;;;;;;;;;;5072417;28;20033;-50
2021/07/14 00:34:04;;;;;;;4.32;2.58;;;;;;;;;;5074006;28;20031;-50
2021/07/14 00:36:30;;;;;;;8.73;3.50;;;;;;;;;;5073790;28;20028;-50
2021/07/14 00:38:56;;;;;;;3.92;3.08;;;;;;;;;;5073349;28;20040;-50
2021/07/14 00:41:22;;;;;;;9.32;3.38;;;;;;;;;;5072738;28;20029;-50
2021/07/14 00:43:48;;;;;;;3.03;2.03;;;;;;;;;;5073851;28;20028;-49
2021/07/14 00:46:19;;;;;;;5.32;2.45;;;;;;;;;;5073973;28;20019;-49
2021/07/14 00:48:46;;;;;;;4.00;2.33;;;;;;;;;;5073524;28;20031;-50
2021/07/14 00:51:12;;;;;;;6.05;2.08;;;;;;;;;;5072706;28;20025;-49
2021/07/14 00:53:38;;;;;;;4.03;2.10;;;;;;;;;;5073610;28;20029;-49
2021/07/14 00:56:04;;;;;;;4.63;2.10;;;;;;;;;;5073476;28;20040;-50
2021/07/14 00:58:32;;;;;;;3.67;1.83;;;;;;;;;;5073473;28;20410;-50
2021/07/14 01:00:58;;;;;;;2.83;1.77;;;;;;;;;;5072972;28;20028;-49
2021/07/14 01:03:26;;;;;;;3.30;1.38;;;;;;;;;;5073501;28;20107;-49
2021/07/14 01:05:54;;;;;;;1.55;1.38;;;;;;;;;;5072980;28;20028;-49
2021/07/14 01:08:27;;;;;;;4.05;1.45;;;;;;;;;;5069189;28;20228;-50
2021/07/14 01:11:00;;;;;;;2.17;1.20;;;;;;;;;;5072413;28;20547;-49
2021/07/14 01:13:35;;;;;;;4.32;1.30;;;;;;;;;;5073034;28;20028;-49
2021/07/14 01:16:03;;;;;;;3.65;1.92;;;;;;;;;;5073312;28;20047;-49
2021/07/14 01:18:29;;;;;;;8.15;1.70;;;;;;;;;;5073547;28;20021;-49
2021/07/14 01:20:58;;;;;;;1.67;1.40;;;;;;;;;;5071779;28;20028;-49
2021/07/14 01:23:29;;;;;;;2.28;1.67;;;;;;;;;;5073059;28;20329;-49
2021/07/14 01:26:07;;;;;;;7.22;2.28;;;;;;;;;;5072963;28;20467;-49
2021/07/14 01:28:35;;;;;;;3.92;2.10;;;;;;;;;;5072756;28;20097;-50
2021/07/14 01:31:02;;;;;;;5.35;1.85;;;;;;;;;;5072079;28;20095;-49
2021/07/14 01:33:30;;;;;;;2.72;1.55;;;;;;;;;;5072726;28;20036;-50
2021/07/14 01:35:57;;;;;;;2.53;1.80;;;;;;;;;;5072990;28;20036;-49
2021/07/14 01:38:24;;;;;;;3.67;1.63;;;;;;;;;;5073184;28;20017;-50
2021/07/14 01:40:50;;;;;;;1.98;1.55;;;;;;;;;;5071771;28;20366;-50
2021/07/14 01:43:17;;;;;;;3.33;1.55;;;;;;;;;;5055566;28;20029;-49
2021/07/14 01:45:43;;;;;;;1.50;1.40;;;;;;;;;;5053287;28;20021;-49
2021/07/14 01:48:10;;;;;;;1.88;1.20;;;;;;;;;;5052575;28;20115;-49
2021/07/14 01:50:36;;;;;;;1.98;1.45;;;;;;;;;;5061977;28;20028;-50
2021/07/14 01:53:03;;;;;;;3.28;1.50;;;;;;;;;;5072911;28;20116;-49
2021/07/14 01:55:31;;;;;;;2.30;1.25;;;;;;;;;;5072642;28;20068;-49
2021/07/14 01:57:57;;;;;;;14.13;1.67;;;;;;;;;;5072239;28;20095;-49
2021/07/14 02:00:23;;;;;;;1.30;1.20;;;;;;;;;;5072733;28;20099;-50
2021/07/14 02:02:54;;;;;;;15.77;2.20;;;;;;;;;;5072169;28;20017;-49
2021/07/14 02:05:21;;;;;;;4.45;1.85;;;;;;;;;;5072878;28;20106;-49
2021/07/14 02:07:47;;;;;;;6.20;1.88;;;;;;;;;;5072664;28;20021;-49
2021/07/14 02:10:13;;;;;;;3.63;2.15;;;;;;;;;;5072287;28;20066;-49
2021/07/14 02:12:40;;;;;;;2.10;1.67;;;;;;;;;;5071998;28;20021;-49
2021/07/14 02:15:06;;;;;;;5.20;1.90;;;;;;;;;;5071895;28;20123;-50
2021/07/14 02:17:37;;;;;;;4.50;1.92;;;;;;;;;;5072848;28;20028;-50
2021/07/14 02:20:08;;;;;;;5.13;1.98;;;;;;;;;;5072487;28;20039;-50
2021/07/14 02:22:34;;;;;;;13.45;4.43;;;;;;;;;;5071399;28;20025;-50
2021/07/14 02:25:01;;;;;;;2.00;1.60;;;;;;;;;;5064101;28;20467;-50
2021/07/14 02:27:27;;;;;;;5.20;1.98;;;;;;;;;;5071871;28;20048;-50
2021/07/14 02:29:53;;;;;;;2.70;1.77;;;;;;;;;;5072386;28;20135;-50
2021/07/14 02:32:20;;;;;;;2.38;1.67;;;;;;;;;;5071481;28;20032;-49
2021/07/14 02:34:48;;;;;;;2.90;2.00;;;;;;;;;;5072199;28;20039;-50
2021/07/14 02:37:17;;;;;;;10.98;2.45;;;;;;;;;;5075615;28;20131;-50
2021/07/14 02:39:46;;;;;;;3.17;1.88;;;;;;;;;;5076149;28;20020;-50
2021/07/14 02:42:13;;;;;;;2.88;1.50;;;;;;;;;;5075007;28;20031;-50
2021/07/14 02:44:43;;;;;;;6.28;2.17;;;;;;;;;;5076338;28;20031;-50
2021/07/14 02:47:09;;;;;;;2.90;2.25;;;;;;;;;;5075852;28;20034;-50
2021/07/14 02:49:38;;;;;;;6.28;2.63;;;;;;;;;;5075589;28;20233;-50
2021/07/14 02:52:04;;;;;;;7.72;2.72;;;;;;;;;;5075550;28;20057;-50
2021/07/14 02:54:32;;;;;;;6.18;2.42;;;;;;;;;;5075760;28;20089;-50
2021/07/14 02:57:01;;;;;;;3.22;2.35;;;;;;;;;;5075877;28;20420;-50
2021/07/14 02:59:29;;;;;;;3.92;2.38;;;;;;;;;;5075453;28;20055;-50
2021/07/14 03:01:56;;;;;;;11.77;2.78;;;;;;;;;;5074982;28;20031;-50
2021/07/14 03:04:26;;;;;;;5.93;3.03;;;;;;;;;;5075599;28;20025;-50
2021/07/14 03:06:52;;;;;;;7.15;3.15;;;;;;;;;;5075497;28;20086;-50
2021/07/14 03:09:20;;;;;;;6.75;3.55;;;;;;;;;;5075053;28;20020;-49
2021/07/14 03:11:47;;;;;;;4.28;2.30;;;;;;;;;;5074994;28;20360;-49
2021/07/14 03:14:14;;;;;;;3.92;2.60;;;;;;;;;;5075227;28;20446;-49
2021/07/14 03:16:41;;;;;;;5.82;3.00;;;;;;;;;;5076187;28;20025;-49
2021/07/14 03:19:08;;;;;;;4.65;2.30;;;;;;;;;;5075421;28;20031;-49
2021/07/14 03:21:35;;;;;;;5.53;2.47;;;;;;;;;;5074001;28;20032;-49
2021/07/14 03:24:02;;;;;;;4.30;2.20;;;;;;;;;;5075272;28;20032;-49
2021/07/14 03:26:28;;;;;;;4.32;3.15;;;;;;;;;;5075138;28;20448;-49
2021/07/14 03:28:54;;;;;;;2.58;1.98;;;;;;;;;;5075127;28;20024;-50
2021/07/14 03:31:21;;;;;;;6.38;2.78;;;;;;;;;;5074039;28;20021;-50
2021/07/14 03:33:47;;;;;;;4.18;2.92;;;;;;;;;;5075630;28;20025;-49
2021/07/14 03:36:13;;;;;;;3.53;2.13;;;;;;;;;;5074530;28;20426;-50
2021/07/14 03:38:40;;;;;;;6.63;3.30;;;;;;;;;;5075245;28;20021;-49
2021/07/14 03:41:06;;;;;;;8.13;3.15;;;;;;;;;;5074539;28;20024;-50
2021/07/14 03:43:33;;;;;;;5.90;2.78;;;;;;;;;;5074921;28;20027;-50
2021/07/14 03:46:00;;;;;;;4.07;2.60;;;;;;;;;;5074852;28;20016;-50
2021/07/14 03:48:29;;;;;;;8.55;3.08;;;;;;;;;;5074754;28;20030;-50
2021/07/14 03:50:55;;;;;;;5.20;2.83;;;;;;;;;;5073600;28;20436;-50
2021/07/14 03:53:23;;;;;;;6.63;2.90;;;;;;;;;;5075097;28;20097;-50
2021/07/14 03:55:49;;;;;;;7.35;3.50;;;;;;;;;;5074784;28;20036;-50
2021/07/14 03:58:16;;;;;;;5.22;3.08;;;;;;;;;;5074347;28;20106;-50
2021/07/14 04:00:42;;;;;;;4.18;2.55;;;;;;;;;;5073463;28;20020;-50
2021/07/14 04:03:09;;;;;;;4.00;2.63;;;;;;;;;;5074314;28;20029;-50
2021/07/14 04:05:42;;;;;;;11.77;3.28;;;;;;;;;;5074398;28;20024;-50
2021/07/14 04:08:08;;;;;;;5.90;2.58;;;;;;;;;;5074559;28;20082;-49
2021/07/14 04:10:34;;;;;;;3.80;2.88;;;;;;;;;;5073045;28;20024;-50
2021/07/14 04:13:00;;;;;;;14.25;3.03;;;;;;;;;;5074399;28;20024;-50
2021/07/14 04:15:26;;;;;;;6.32;2.83;;;;;;;;;;5073441;28;20082;-50
2021/07/14 04:17:52;;;;;;;2.88;2.03;;;;;;;;;;5056642;28;20444;-49
2021/07/14 04:20:18;;;;;;;5.90;2.42;;;;;;;;;;5053734;28;20124;-50
2021/07/14 04:22:44;;;;;;;7.93;2.28;;;;;;;;;;5053892;28;20017;-49
2021/07/14 04:25:12;;;;;;;3.75;2.00;;;;;;;;;;5055359;28;20039;-50
2021/07/14 04:27:38;;;;;;;3.38;1.42;;;;;;;;;;5073199;28;20090;-50
2021/07/14 04:30:04;;;;;;;1.92;1.70;;;;;;;;;;5073531;28;20226;-49
2021/07/14 04:32:30;;;;;;;2.63;1.67;;;;;;;;;;5072620;28;20021;-49
2021/07/14 04:34:57;;;;;;;2.20;1.77;;;;;;;;;;5071878;28;20044;-50
2021/07/14 04:37:23;;;;;;;2.28;1.75;;;;;;;;;;5073467;28;20439;-49
2021/07/14 04:39:49;;;;;;;4.15;1.45;;;;;;;;;;5073854;28;20036;-49
2021/07/14 04:42:14;;;;;;;6.22;1.60;;;;;;;;;;5073082;28;20037;-49
2021/07/14 04:44:51;;;;;;;15.23;2.05;;;;;;;;;;5073742;28;20024;-50
2021/07/14 04:47:17;;;;;;;3.20;1.75;;;;;;;;;;5073439;28;20024;-49
2021/07/14 04:49:44;;;;;;;2.03;1.50;;;;;;;;;;5073740;28;20764;-50
2021/07/14 04:52:10;;;;;;;8.27;1.80;;;;;;;;;;5072951;28;20017;-50
2021/07/14 04:54:36;;;;;;;3.03;1.65;;;;;;;;;;5073538;28;20033;-49
2021/07/14 04:57:02;;;;;;;3.72;1.60;;;;;;;;;;5073970;28;20029;-50
2021/07/14 04:59:28;;;;;;;2.03;1.55;;;;;;;;;;5072360;28;20016;-49
2021/07/14 05:01:54;;;;;;;3.42;2.13;;;;;;;;;;5072346;28;20024;-50
2021/07/14 05:04:20;;;;;;;2.47;1.65;;;;;;;;;;5073836;28;20025;-50
2021/07/14 05:06:47;;;;;;;6.20;1.63;;;;;;;;;;5073588;28;20454;-50
2021/07/14 05:09:13;;;;;;;2.03;1.50;;;;;;;;;;5073660;28;20363;-49
2021/07/14 05:11:39;;;;;;;4.20;1.48;;;;;;;;;;5072439;28;20456;-49
2021/07/14 05:14:05;;;;;;;2.58;1.55;;;;;;;;;;5052633;28;20048;-49
2021/07/14 05:16:31;;;;;;;1.58;1.48;;;;;;;;;;5053413;28;20492;-49
2021/07/14 05:18:57;;;;;;;1.33;1.23;;;;;;;;;;5052950;28;20376;-49
2021/07/14 05:21:23;;;;;;;6.38;1.45;;;;;;;;;;5052003;28;20041;-49
2021/07/14 05:23:49;;;;;;;3.65;1.85;;;;;;;;;;5053265;28;20021;-49
2021/07/14 05:26:17;;;;;;;1.20;1.10;;;;;;;;;;5067707;28;20444;-49
2021/07/14 05:28:43;;;;;;;2.75;1.40;;;;;;;;;;5072469;28;20506;-49
2021/07/14 05:31:09;;;;;;;1.10;1.10;;;;;;;;;;5072069;28;20023;-49
2021/07/14 05:33:35;;;;;;;1.92;1.00;;;;;;;;;;5071988;28;20024;-50
2021/07/14 05:36:01;;;;;;;1.55;1.40;;;;;;;;;;5072365;28;20115;-50
2021/07/14 05:38:28;;;;;;;1.58;1.30;;;;;;;;;;5071501;28;20505;-50
2021/07/14 05:40:54;;;;;;;1.27;1.10;;;;;;;;;;5071299;28;20029;-50
2021/07/14 05:43:20;;;;;;;3.05;1.65;;;;;;;;;;5071648;28;20023;-50
2021/07/14 05:45:46;;;;;;;1.88;1.35;;;;;;;;;;5072601;28;20020;-50
2021/07/14 05:48:12;;;;;;;3.55;1.50;;;;;;;;;;5073172;28;20020;-50
2021/07/14 05:50:39;;;;;;;11.27;1.77;;;;;;;;;;5071799;28;20031;-50
2021/07/14 05:53:05;;;;;;;2.88;1.38;;;;;;;;;;5073565;28;20032;-50
2021/07/14 05:55:31;;;;;;;2.25;1.38;;;;;;;;;;5072498;28;20036;-50
2021/07/14 05:57:57;;;;;;;6.10;1.67;;;;;;;;;;5072837;28;20025;-50
2021/07/14 06:00:23;;;;;;;5.55;1.40;;;;;;;;;;5072363;28;20024;-50
2021/07/14 06:02:49;;;;;;;2.20;1.27;;;;;;;;;;5072056;28;20036;-50
2021/07/14 06:05:15;;;;;;;5.78;1.33;;;;;;;;;;5073329;28;20399;-50
2021/07/14 06:07:41;;;;;;;3.90;2.28;;;;;;;;;;5072684;28;20025;-50
2021/07/14 06:10:08;;;;;;;1.70;1.50;;;;;;;;;;5072433;28;20115;-50
2021/07/14 06:12:34;;;;;;;1.98;1.50;;;;;;;;;;5075290;28;20029;-50
2021/07/14 06:15:00;;;;;;;2.90;1.60;;;;;;;;;;5076752;28;20032;-50
2021/07/14 06:17:26;;;;;;;1.88;1.52;;;;;;;;;;5076561;28;20470;-50
2021/07/14 06:19:52;;;;;;;2.03;1.40;;;;;;;;;;5076535;28;20033;-50
2021/07/14 06:22:19;;;;;;;2.90;1.63;;;;;;;;;;5075952;28;20036;-50
2021/07/14 06:24:45;;;;;;;1.67;1.40;;;;;;;;;;5076292;28;20023;-50
2021/07/14 06:27:11;;;;;;;2.03;1.10;;;;;;;;;;5076803;28;20113;-50
2021/07/14 06:29:37;;;;;;;2.58;1.80;;;;;;;;;;5076396;28;20032;-50
2021/07/14 06:32:03;;;;;;;4.88;1.50;;;;;;;;;;5073100;28;20135;-50
2021/07/14 06:34:29;;;;;;;4.68;1.88;;;;;;;;;;5076861;28;20028;-50
2021/07/14 06:36:55;;;;;;;5.85;2.08;;;;;;;;;;5074633;28;20416;-50
2021/07/14 06:39:21;;;;;;;3.70;1.65;;;;;;;;;;5076308;28;20111;-50
2021/07/14 06:41:48;;;;;;;1.65;1.40;;;;;;;;;;5075313;28;20705;-50
2021/07/14 06:44:14;;;;;;;3.75;1.77;;;;;;;;;;5076035;28;20074;-50
2021/07/14 06:46:40;;;;;;;3.88;2.35;;;;;;;;;;5075281;28;20036;-50
2021/07/14 06:49:06;;;;;;;3.80;1.80;;;;;;;;;;5076258;28;20024;-50
2021/07/14 06:51:32;;;;;;;2.92;2.17;;;;;;;;;;5075113;28;20035;-50
2021/07/14 06:53:58;;;;;;;2.17;1.73;;;;;;;;;;5076002;28;20025;-50
2021/07/14 06:56:24;;;;;;;3.65;2.05;;;;;;;;;;5076042;28;20032;-51
2021/07/14 06:58:50;;;;;;;14.13;2.05;;;;;;;;;;5075681;28;20027;-51
2021/07/14 07:01:16;;;;;;;4.43;1.88;;;;;;;;;;5074484;28;20032;-51
2021/07/14 07:03:42;;;;;;;13.02;2.95;;;;;;;;;;5075875;28;20024;-51
2021/07/14 07:06:09;;;;;;;3.83;2.17;;;;;;;;;;5076437;28;20024;-51
2021/07/14 07:08:35;;;;;;;12.07;2.28;;;;;;;;;;5061841;28;20116;-50
2021/07/14 07:11:01;;;;;;;7.20;2.58;;;;;;;;;;5071597;28;20024;-50
2021/07/14 07:13:27;;;;;;;6.82;2.67;;;;;;;;;;5075038;28;20046;-50
2021/07/14 07:15:53;;;;;;;8.15;2.70;;;;;;;;;;5075298;28;20040;-50
2021/07/14 07:18:21;;;;;;;9.07;3.45;;;;;;;;;;5075777;28;20360;-51
2021/07/14 07:20:47;;;;;;;8.23;3.10;;;;;;;;;;5074820;28;20479;-51
2021/07/14 07:23:13;;;;;;;9.88;2.83;;;;;;;;;;5074655;28;20020;-51
2021/07/14 07:25:40;;;;;;;7.93;2.83;;;;;;;;;;5075547;28;20027;-51
2021/07/14 07:28:13;;;;;;;10.77;3.28;;;;;;;;;;5075251;28;20448;-51
2021/07/14 07:30:39;;;;;;;6.47;2.42;;;;;;;;;;5074430;28;20534;-50
2021/07/14 07:33:05;;;;;;;7.00;3.03;;;;;;;;;;5075057;28;20120;-50
2021/07/14 07:35:31;;;;;;;5.60;3.15;;;;;;;;;;5075315;28;20039;-51
2021/07/14 07:37:57;;;;;;;5.65;2.17;;;;;;;;;;5074768;28;20021;-50
2021/07/14 07:40:23;;;;;;;4.47;2.67;;;;;;;;;;5075095;28;20528;-51
2021/07/14 07:42:49;;;;;;;3.28;2.47;;;;;;;;;;5074648;28;20119;-50
2021/07/14 07:45:15;;;;;;;7.95;2.15;;;;;;;;;;5075132;28;20048;-50
2021/07/14 07:47:41;;;;;;;4.70;2.25;;;;;;;;;;5074670;28;20460;-50
2021/07/14 07:50:09;;;;;;;5.15;1.70;;;;;;;;;;5074781;28;20035;-50
2021/07/14 07:52:35;;;;;;;5.93;1.50;;;;;;;;;;5073841;28;20040;-51
2021/07/14 07:55:01;;;;;;;2.72;1.67;;;;;;;;;;5075007;28;20032;-50
2021/07/14 07:57:28;;;;;;;5.05;1.73;;;;;;;;;;5074608;28;20460;-50
2021/07/14 07:59:54;;;;;;;8.30;2.67;;;;;;;;;;5074769;28;20456;-50
2021/07/14 08:02:20;;;;;;;3.88;1.50;;;;;;;;;;5073693;28;20443;-50
2021/07/14 08:04:46;;;;;;;2.05;1.35;;;;;;;;;;5074655;28;20024;-50
2021/07/14 08:07:12;;;;;;;2.65;1.80;;;;;;;;;;5074106;28;20165;-51
2021/07/14 08:09:38;;;;;;;4.85;1.13;;;;;;;;;;5074664;28;20093;-51
2021/07/14 08:12:05;;;;;;;2.63;1.50;;;;;;;;;;5074067;28;20047;-51
2021/07/14 08:14:31;;;;;;;2.00;1.42;;;;;;;;;;5074650;28;20055;-50
2021/07/14 08:16:57;;;;;;;2.22;1.40;;;;;;;;;;5074370;28;20436;-50
2021/07/14 08:19:23;;;;;;;7.82;1.52;;;;;;;;;;5073798;28;20025;-50
2021/07/14 08:21:49;;;;;;;3.85;1.50;;;;;;;;;;5073436;28;20028;-51
2021/07/14 08:24:15;;;;;;;1.92;1.50;;;;;;;;;;5074390;28;20025;-51
2021/07/14 08:26:41;;;;;;;1.92;1.20;;;;;;;;;;5074471;28;20032;-51
2021/07/14 08:29:07;;;;;;;1.50;1.40;;;;;;;;;;5074066;28;20020;-50
2021/07/14 08:31:33;;;;;;;4.80;1.42;;;;;;;;;;5073182;28;20359;-50
2021/07/14 08:33:59;;;;;;;1.58;1.30;;;;;;;;;;5072699;28;20107;-50
2021/07/14 08:36:25;;;;;;;3.30;1.95;;;;;;;;;;5073781;28;20119;-51
2021/07/14 08:38:52;;;;;;;2.28;1.35;;;;;;;;;;5074072;28;20066;-50
2021/07/14 08:41:18;;;;;;;2.80;1.45;;;;;;;;;;5073447;28;20020;-50
2021/07/14 08:43:45;;;;;;;3.53;1.67;;;;;;;;;;5073617;28;20040;-51
2021/07/14 08:46:11;;;;;;;1.67;1.48;;;;;;;;;;5074216;28;20028;-51
2021/07/14 08:48:37;;;;;;;11.13;2.10;;;;;;;;;;5073790;28;20025;-50
2021/07/14 08:51:03;;;;;;;1.55;1.30;;;;;;;;;;5072686;28;20405;-51
2021/07/14 08:53:30;;;;;;;6.57;1.35;;;;;;;;;;5073776;28;20025;-50
2021/07/14 08:55:57;;;;;;;1.67;1.40;;;;;;;;;;5073767;28;20066;-51
2021/07/14 08:58:25;;;;;;;4.43;1.23;;;;;;;;;;5073579;28;20020;-50
2021/07/14 09:00:52;;;;;;;5.90;1.65;;;;;;;;;;5072631;28;20360;-50
2021/07/14 09:03:18;;;;;;;7.38;2.10;;;;;;;;;;5073273;28;20505;-50
2021/07/14 09:05:44;;;;;;;3.47;1.48;;;;;;;;;;5073462;28;20036;-51
2021/07/14 09:08:11;;;;;;;5.30;1.70;;;;;;;;;;5073069;28;20035;-51
2021/07/14 09:10:37;;;;;;;2.10;1.50;;;;;;;;;;5072737;28;20529;-50
2021/07/14 09:13:04;;;;;;;4.53;1.90;;;;;;;;;;5073550;28;20025;-51
2021/07/14 09:15:39;;;;;;;2.90;1.80;;;;;;;;;;5073607;28;20058;-51
2021/07/14 09:18:04;;;;;;;6.07;1.65;;;;;;;;;;5072524;28;20021;-51
2021/07/14 09:20:32;;;;;;;2.65;1.80;;;;;;;;;;5072620;28;20371;-50
2021/07/14 09:23:02;;;;;;;2.58;2.22;;;;;;;;;;5073087;28;20024;-51
2021/07/14 09:25:28;;;;;;;;;;;;;;;;;;5073724;28;20052;-50
2021/07/14 09:27:54;;;;;;;2.22;1.60;;;;;;;;;;5072752;28;19905;-51
2021/07/14 09:30:21;;;;;;;3.53;1.83;;;;;;;;;;5073002;28;20029;-51
2021/07/14 09:33:00;;;;;;;3.17;1.90;;;;;;;;;;5072261;28;20035;-50
2021/07/14 09:35:27;;;;;;;4.43;2.28;;;;;;;;;;5072852;28;20089;-51
2021/07/14 09:37:53;;;;;;;2.63;1.83;;;;;;;;;;5072828;28;20017;-51
2021/07/14 09:40:20;;;;;;;2.60;1.77;;;;;;;;;;5072974;28;20028;-51
2021/07/14 09:42:50;;;;;;;6.55;2.35;;;;;;;;;;5071703;28;20329;-50
2021/07/14 09:45:17;;;;;;;8.35;1.98;;;;;;;;;;5072631;28;20040;-51
2021/07/14 09:47:43;;;;;;;3.35;1.67;;;;;;;;;;5072916;28;20040;-51
2021/07/14 09:50:09;;;;;;;3.75;1.98;;;;;;;;;;5073123;28;20495;-51
2021/07/14 09:52:35;;;;;;;2.47;1.65;;;;;;;;;;5072186;28;20024;-50
2021/07/14 09:55:05;;;;;;;5.50;2.15;;;;;;;;;;5072652;28;20040;-50
2021/07/14 09:57:31;;;;;;;3.35;1.95;;;;;;;;;;5072996;28;20025;-51
2021/07/14 09:59:57;;;;;;;4.82;1.80;;;;;;;;;;5072637;28;20028;-51
2021/07/14 10:02:23;;;;;;;3.50;1.92;;;;;;;;;;5072131;28;20333;-51
2021/07/14 10:04:49;;;;;;;3.05;1.60;;;;;;;;;;5072636;28;20024;-51
2021/07/14 10:07:19;;;;;;;3.22;1.80;;;;;;;;;;5072759;28;20478;-51
2021/07/14 10:09:46;;;;;;;1.85;1.35;;;;;;;;;;5072519;28;20024;-51
2021/07/14 10:12:29;;;;;;;2.88;1.55;;;;;;;;;;5071461;28;20036;-51
2021/07/14 10:15:19;;;;;;;2.30;1.80;;;;;;;;;;5072659;28;20074;-51
2021/07/14 10:17:45;;;;;;;;;;;;;;;;;;5067756;28;20467;-51
2021/07/14 10:20:32;;;;;;;1.60;1.30;;;;;;;;;;5072072;28;19916;-50
2021/07/14 10:23:10;;;;;;;2.63;2.03;;;;;;;;;;5072863;28;20100;-50
2021/07/14 10:25:37;;;;;;;1.98;1.40;;;;;;;;;;5072456;28;20028;-50
2021/07/14 10:28:04;;;;;;;2.40;1.90;;;;;;;;;;5072638;28;20101;-50
2021/07/14 10:30:30;;;;;;;3.15;1.63;;;;;;;;;;5071735;28;20024;-50
2021/07/14 10:32:57;;;;;;;3.35;1.55;;;;;;;;;;5071888;28;20024;-50
2021/07/14 10:35:29;;;;;;;1.80;1.65;;;;;;;;;;5072392;28;20123;-50
2021/07/14 10:37:57;;;;;;;2.17;1.42;;;;;;;;;;5072418;28;20017;-51
2021/07/14 10:40:24;;;;;;;2.20;1.73;;;;;;;;;;5072327;28;20028;-50
2021/07/14 10:42:51;;;;;;;5.18;2.00;;;;;;;;;;5071745;28;20089;-50
2021/07/14 10:45:17;;;;;;;1.90;1.67;;;;;;;;;;5072230;28;20078;-50
2021/07/14 10:47:47;;;;;;;2.47;1.45;;;;;;;;;;5071900;28;20047;-50
2021/07/14 10:50:15;;;;;;;2.10;1.75;;;;;;;;;;5072089;28;20025;-50
2021/07/14 10:52:41;;;;;;;2.40;1.58;;;;;;;;;;5071303;28;20031;-50
2021/07/14 10:55:12;;;;;;;1.98;1.45;;;;;;;;;;5072381;28;20213;-50
2021/07/14 10:57:38;;;;;;;2.58;1.73;;;;;;;;;;5073899;28;20025;-50
2021/07/14 11:00:06;;;;;;;2.63;1.80;;;;;;;;;;5075625;28;20029;-50
2021/07/14 11:02:39;;;;;;;2.30;1.50;;;;;;;;;;5075556;28;20088;-51
2021/07/14 11:05:06;;;;;;;2.05;1.58;;;;;;;;;;5075723;28;20021;-50
2021/07/14 11:07:39;;;;;;;3.72;2.08;;;;;;;;;;5076069;28;20078;-50
2021/07/14 11:10:23;;;;;;;2.58;1.50;;;;;;;;;;5075753;28;20028;-50
2021/07/14 11:12:50;;;;;;;1.85;1.58;;;;;;;;;;5075155;28;20033;-50
2021/07/14 11:15:28;;;;;;;3.10;1.70;;;;;;;;;;5075569;28;20032;-51
2021/07/14 11:17:54;;;;;;;2.50;1.80;;;;;;;;;;5075906;28;20024;-51
2021/07/14 11:20:20;;;;;;;2.67;2.22;;;;;;;;;;5075109;28;20040;-50
2021/07/14 11:22:52;;;;;;;2.00;1.45;;;;;;;;;;5075043;28;20440;-50
2021/07/14 11:25:22;;;;;;;2.88;1.50;;;;;;;;;;5075475;28;20033;-50
2021/07/14 11:27:50;;;;;;;2.70;1.52;;;;;;;;;;5075612;28;20075;-50
2021/07/14 11:30:16;;;;;;;1.52;1.40;;;;;;;;;;5074927;28;20041;-50
2021/07/14 11:32:42;;;;;;;2.88;1.80;;;;;;;;;;5074512;28;20035;-50
2021/07/14 11:35:19;;;;;;;2.15;1.50;;;;;;;;;;5075147;28;20028;-51
2021/07/14 11:37:45;;;;;;;2.90;1.80;;;;;;;;;;5075125;28;20031;-51
2021/07/14 11:40:35;;;;;;;2.33;1.75;;;;;;;;;;5074975;28;20029;-50
2021/07/14 11:43:00;;;;;;;6.18;1.45;;;;;;;;;;5069369;28;20037;-50
2021/07/14 11:45:26;;;;;;;2.08;1.58;;;;;;;;;;5074921;28;20028;-50
2021/07/14 11:48:19;;;;;;;2.03;1.52;;;;;;;;;;5074986;28;20021;-50
2021/07/14 11:50:45;;;;;;;1.85;1.58;;;;;;;;;;5072295;28;20033;-50
2021/07/14 11:53:27;;;;;;;1.77;1.42;;;;;;;;;;5074808;28;20078;-50
2021/07/14 11:56:11;;;;;;;2.25;1.25;;;;;;;;;;5075023;28;20028;-50
2021/07/14 11:59:00;;;;;;;3.65;1.75;;;;;;;;;;5074943;28;20090;-50
2021/07/14 12:01:26;;;;;;;2.22;1.60;;;;;;;;;;5068106;28;20090;-50
2021/07/14 12:04:01;;;;;;;1.20;1.10;;;;;;;;;;5074920;28;20032;-50
2021/07/14 12:06:46;;;;;;;1.55;1.45;;;;;;;;;;5074729;28;20028;-50
2021/07/14 12:09:12;;;;;;;1.25;1.15;;;;;;;;;;5074656;28;20368;-51
2021/07/14 12:11:50;;;;;;;2.15;1.25;;;;;;;;;;5073574;28;20527;-50
2021/07/14 12:14:22;;;;;;;4.57;1.80;;;;;;;;;;5074901;28;20021;-50
2021/07/14 12:16:53;;;;;;;1.80;1.40;;;;;;;;;;5074653;28;20115;-50
2021/07/14 12:19:23;;;;;;;2.42;1.30;;;;;;;;;;5073511;28;20031;-51
2021/07/14 12:21:49;;;;;;;2.53;1.88;;;;;;;;;;5073778;28;20037;-50
2021/07/14 12:24:36;;;;;;;1.65;1.40;;;;;;;;;;5074464;28;20035;-50
2021/07/14 12:27:06;;;;;;;1.83;1.38;;;;;;;;;;5074197;28;20029;-51
2021/07/14 12:29:32;;;;;;;;;;;;;;;;;;5074809;28;20337;-50
2021/07/14 12:31:59;;;;;;;1.77;1.50;;;;;;;;;;5073404;28;20350;-50
2021/07/14 12:34:35;;;;;;;4.47;1.52;;;;;;;;;;5072594;28;20013;-50
2021/07/14 12:37:03;;;;;;;1.83;1.50;;;;;;;;;;5074079;28;20085;-50
2021/07/14 12:39:34;;;;;;;6.53;1.88;;;;;;;;;;5074096;28;20074;-50
2021/07/14 12:42:01;;;;;;;1.80;1.48;;;;;;;;;;5072772;28;20021;-50
2021/07/14 12:44:27;;;;;;;1.90;1.55;;;;;;;;;;5074316;28;20115;-50
2021/07/14 12:46:53;;;;;;;2.67;1.70;;;;;;;;;;5073983;28;20028;-51
2021/07/14 12:49:21;;;;;;;1.83;1.70;;;;;;;;;;5073873;28;20035;-50
2021/07/14 12:52:03;;;;;;;2.63;1.90;;;;;;;;;;5072549;28;20025;-50
2021/07/14 12:54:30;;;;;;;1.52;1.40;;;;;;;;;;5073646;28;20031;-50
2021/07/14 12:57:04;;;;;;;2.03;1.70;;;;;;;;;;5073547;28;20444;-50
2021/07/14 12:59:30;;;;;;;1.45;1.35;;;;;;;;;;5073861;28;20020;-50
2021/07/14 13:01:56;;;;;;;1.98;1.80;;;;;;;;;;5072646;28;20051;-50
2021/07/14 13:04:22;;;;;;;1.67;1.45;;;;;;;;;;5073613;28;20115;-50
2021/07/14 13:06:48;;;;;;;1.77;1.45;;;;;;;;;;5073071;28;20047;-50
2021/07/14 13:09:15;;;;;;;2.15;1.40;;;;;;;;;;5060972;28;20194;-50
2021/07/14 13:11:41;;;;;;;1.85;1.45;;;;;;;;;;5067982;28;20077;-50
2021/07/14 13:14:07;;;;;;;1.42;1.33;;;;;;;;;;5073540;28;20032;-50
2021/07/14 13:16:33;;;;;;;1.20;1.10;;;;;;;;;;5073302;28;20037;-50
2021/07/14 13:19:00;;;;;;;1.70;1.48;;;;;;;;;;5073384;28;20024;-50
2021/07/14 13:21:27;;;;;;;1.90;1.50;;;;;;;;;;5071779;28;20040;-50
2021/07/14 13:24:07;;;;;;;1.58;1.35;;;;;;;;;;5073285;28;20044;-50
2021/07/14 13:26:33;;;;;;;3.45;1.05;;;;;;;;;;5073291;28;20098;-50
2021/07/14 13:29:00;;;;;;;3.03;1.30;;;;;;;;;;5072792;28;20102;-50
2021/07/14 13:31:27;;;;;;;0.88;0.80;;;;;;;;;;5072284;28;20075;-50
2021/07/14 13:34:09;;;;;;;3.85;1.25;;;;;;;;;;5072949;28;20467;-50
2021/07/14 13:36:36;;;;;;;1.83;1.27;;;;;;;;;;5073020;28;20089;-50
2021/07/14 13:39:03;;;;;;;1.58;1.05;;;;;;;;;;5072312;28;20267;-50
2021/07/14 13:41:31;;;;;;;1.27;1.17;;;;;;;;;;5072277;28;20020;-50
2021/07/14 13:44:00;;;;;;;1.73;1.33;;;;;;;;;;5073123;28;20047;-50
2021/07/14 13:46:26;;;;;;;1.80;1.27;;;;;;;;;;5072961;28;20112;-50
2021/07/14 13:48:53;;;;;;;1.30;1.20;;;;;;;;;;5072763;28;20025;-50
2021/07/14 13:51:29;;;;;;;1.65;1.40;;;;;;;;;;5071477;28;20085;-51
2021/07/14 13:53:56;;;;;;;1.20;1.10;;;;;;;;;;5072946;28;20028;-50
2021/07/14 13:56:28;;;;;;;1.38;1.17;;;;;;;;;;5072476;28;20128;-51
2021/07/14 13:58:54;;;;;;;1.25;1.15;;;;;;;;;;5072648;28;20462;-50
2021/07/14 14:01:24;;;;;;;1.95;1.45;;;;;;;;;;5071531;28;20078;-50
2021/07/14 14:03:56;;;;;;;1.33;1.10;;;;;;;;;;5072524;28;20029;-50
2021/07/14 14:06:22;;;;;;;11.32;1.45;;;;;;;;;;5072814;28;20033;-51
2021/07/14 14:08:52;;;;;;;5.05;1.48;;;;;;;;;;5072540;28;20044;-50
2021/07/14 14:11:18;;;;;;;1.95;1.20;;;;;;;;;;5071606;28;20120;-50
2021/07/14 14:13:44;;;;;;;2.72;1.80;;;;;;;;;;5072556;28;20112;-50
2021/07/14 14:16:10;;;;;;;1.50;1.40;;;;;;;;;;5072262;28;20056;-50
2021/07/14 14:18:36;;;;;;;1.77;1.55;;;;;;;;;;5072778;28;20039;-50
2021/07/14 14:21:04;;;;;;;2.40;1.40;;;;;;;;;;5071574;28;20056;-50
2021/07/14 14:23:30;;;;;;;1.65;1.30;;;;;;;;;;5072648;28;20020;-50
2021/07/14 14:25:59;;;;;;;1.00;1.00;;;;;;;;;;5072747;28;20031;-50
2021/07/14 14:28:25;;;;;;;1.95;1.77;;;;;;;;;;5072652;28;20528;-50
2021/07/14 14:31:00;;;;;;;1.50;1.38;;;;;;;;;;5071173;28;20071;-50
2021/07/14 14:33:26;;;;;;;2.10;1.60;;;;;;;;;;5075451;28;20036;-50
2021/07/14 14:35:52;;;;;;;1.45;1.33;;;;;;;;;;5076640;28;20417;-50
2021/07/14 14:38:21;;;;;;;1.73;1.50;;;;;;;;;;5075986;28;20024;-50
2021/07/14 14:40:49;;;;;;;1.63;1.35;;;;;;;;;;5075293;28;20519;-50
2021/07/14 14:43:15;;;;;;;2.25;1.60;;;;;;;;;;5076347;28;20028;-50
2021/07/14 14:45:44;;;;;;;1.75;1.48;;;;;;;;;;5076385;28;20138;-50
2021/07/14 14:48:10;;;;;;;1.40;1.30;;;;;;;;;;5076171;28;20020;-50
2021/07/14 14:50:36;;;;;;;15.65;1.50;;;;;;;;;;5075268;28;20020;-51
2021/07/14 14:53:02;;;;;;;2.90;1.50;;;;;;;;;;5076128;28;20017;-50
2021/07/14 14:55:28;;;;;;;6.70;2.03;;;;;;;;;;5075685;28;20037;-50